• Join FlightAware (Why Join?)
  • Login
  • US Flag 
04:41AM EDT


 

Airport Tracker/Info


-or-


 

Live Flight TrackerFlight Track Log ✈ SWA1688 ✈ 12-May-2013 ✈ KMCO - KALB

Flight Track Log - Related Links

Times and Time Zones

All times are in EDT time to prevent confusion due to time zone crossing. See the SWA1688 flight status page for this flight to view local times or setup timezone preferences in your user account.

Time Position Orientation Groundspeed Altitude Reporting Facility
EDT Latitude Longitude Course Direction KTS MPH feet Rate Location/Type
09:36PM 28.4333 -81.3000 30° Northeast 179 206 800  Level Orlando TRACON
09:37PM 28.4833 -81.2667 30° Northeast 212 244 3,600 2,640 Climbing Orlando TRACON
09:38PM 28.5500 -81.2333 24° Northeast 226 260 6,400 3,180 Climbing Orlando TRACON
09:41PM 28.7597 -81.2917 346° North 283 326 16,100 3,240 Climbing Jacksonville Center
09:42PM 28.8478 -81.3186 345° North 306 352 19,000 2,700 Climbing Jacksonville Center
09:43PM 28.9419 -81.3433 347° North 328 377 21,600 2,160 Climbing Jacksonville Center
09:44PM 29.0447 -81.3797 343° North 358 412 23,400 2,340 Climbing Jacksonville Center
09:45PM 29.1617 -81.3992 352° North 391 450 26,300 2,700 Climbing Jacksonville Center
09:46PM 29.2767 -81.4094 356° North 411 473 28,900 2,040 Climbing Jacksonville Center
09:47PM 29.3978 -81.4172 357° North 416 479 30,400 1,560 Climbing Jacksonville Center
09:48PM 29.5192 -81.4319 354° North 427 491 32,100 1,800 Climbing Jacksonville Center
09:49PM 29.6444 -81.4444 355° North 438 504 34,100 1,980 Climbing Jacksonville Center
09:50PM 29.7658 -81.4547 356° North 444 511 36,100 1,740 Climbing Jacksonville Center
09:51PM 29.8889 -81.4672 355° North 444 511 37,600 1,260 Climbing Jacksonville Center
09:52PM 30.0122 -81.4750 357° North 444 511 38,700 1,200 Climbing Jacksonville Center
09:53PM 30.1392 -81.4275 18° North 444 511 40,100 1,140 Climbing Jacksonville Center
09:54PM 30.2658 -81.3725 21° North 458 527 41,000 420 Climbing Jacksonville Center
09:55PM 30.4008 -81.3128 21° North 463 533 41,000  Level Jacksonville Center
09:56PM 30.5233 -81.2625 19° North 468 539 41,000  Level Jacksonville Center
09:57PM 30.6458 -81.2097 20° North 468 539 41,000  Level Jacksonville Center
09:58PM 30.7703 -81.1542 21° North 468 539 41,000  Level Jacksonville Center
09:59PM 30.8950 -81.0986 21° North 468 539 41,000  Level Jacksonville Center
10:00PM 31.0172 -81.0478 20° North 468 539 41,000  Level Jacksonville Center
10:01PM 31.1397 -80.9944 20° North 458 527 41,000  Level Jacksonville Center
10:02PM 31.2622 -80.9408 21° North 466 536 41,000  Level Jacksonville Center
10:03PM 31.3678 -80.8900 22° Northeast 466 536 41,000  Level Jacksonville Center
10:04PM 31.5047 -80.8311 20° North 466 536 41,000  Level Jacksonville Center
10:05PM 31.6167 -80.7822 20° North 466 536 41,000  Level Jacksonville Center
10:06PM 31.7533 -80.7206 21° North 471 542 41,000  Level Jacksonville Center
10:07PM 31.8756 -80.6686 20° North 466 536 41,000  Level Jacksonville Center
10:08PM 31.9875 -80.6169 21° North 471 542 41,000  Level Jacksonville Center
10:09PM 32.1242 -80.5572 20° North 471 542 41,000  Level Jacksonville Center
10:10PM 32.2339 -80.5053 22° Northeast 466 536 41,000  Level Jacksonville Center
10:11PM 32.3558 -80.4481 22° Northeast 466 536 41,000  Level Jacksonville Center
10:12PM 32.4967 -80.3875 20° North 471 542 41,000  Level Jacksonville Center
10:13PM 32.5939 -80.3406 22° Northeast 471 542 41,000  Level Jacksonville Center
10:14PM 32.7428 -80.2722 21° North 466 536 41,000  Level Jacksonville Center
10:15PM 32.8647 -80.2167 21° North 466 536 41,000  Level Jacksonville Center
10:16PM 32.9886 -80.1586 21° North 473 544 41,000  Level Jacksonville Center
10:17PM 33.1211 -80.1000 20° North 479 551 41,000  Level Jacksonville Center
10:18PM 33.2469 -80.0414 21° North 484 557 41,000  Level Jacksonville Center
10:19PM 33.3708 -79.9850 21° North 484 557 41,000  Level Jacksonville Center
10:20PM 33.4947 -79.9264 22° Northeast 479 551 41,000  Level Jacksonville Center
10:21PM 33.6186 -79.8697 21° North 479 551 41,000  Level Jacksonville Center
10:22PM 33.7444 -79.8106 21° North 479 551 41,000  Level Jacksonville Center
10:23PM 33.8683 -79.7511 22° Northeast 479 551 41,000  Level Jacksonville Center
10:24PM 33.9942 -79.6939 21° North 479 551 41,000  Level Jacksonville Center
10:25PM 34.1158 -79.6369 21° North 479 551 41,000  Level Jacksonville Center
10:26PM 34.2394 -79.5769 22° Northeast 474 545 41,000  Level Jacksonville Center
10:28PM 34.4064 -79.4961 22° Northeast 463 533 41,000  Level Washington Center
10:29PM 34.5272 -79.4389 21° North 463 533 41,000  Level Washington Center
10:30PM 34.6500 -79.3814 21° North 463 533 41,000  Level Washington Center
10:31PM 34.7708 -79.3214 22° Northeast 463 533 41,000  Level Washington Center
10:32PM 34.8936 -79.2636 21° North 463 533 41,000  Level Washington Center
10:33PM 35.0131 -79.1803 30° Northeast 469 540 41,000  Level Washington Center
10:34PM 35.1308 -79.0839 34° Northeast 487 560 41,000  Level Washington Center
10:35PM 35.2461 -78.9922 33° Northeast 493 567 41,000  Level Washington Center
10:36PM 35.3636 -78.8956 34° Northeast 498 573 41,000  Level Washington Center
10:37PM 35.4808 -78.8033 33° Northeast 498 573 41,000  Level Washington Center
10:38PM 35.6042 -78.7086 32° Northeast 506 582 41,000  Level Washington Center
10:39PM 35.7239 -78.6058 35° Northeast 511 588 41,000  Level Washington Center
10:40PM 35.8389 -78.5078 35° Northeast 511 588 41,000  Level Washington Center
10:41PM 35.9558 -78.4119 34° Northeast 511 588 41,000  Level Washington Center
10:42PM 36.0731 -78.3133 34° Northeast 505 581 41,000  Level Washington Center
10:43PM 36.1750 -78.2294 34° Northeast 500 575 41,000  Level Washington Center
10:44PM 36.2919 -78.1303 34° Northeast 500 575 41,000  Level Washington Center
10:45PM 36.4086 -78.0333 34° Northeast 500 575 41,000  Level Washington Center
10:46PM 36.5233 -77.9361 34° Northeast 495 570 41,000  Level Washington Center
10:47PM 36.6400 -77.8361 35° Northeast 502 578 41,000  Level Washington Center
10:48PM 36.7522 -77.7408 34° Northeast 497 572 41,000  Level Washington Center
10:49PM 36.8689 -77.6403 35° Northeast 497 572 41,000  Level Washington Center
10:50PM 36.9853 -77.5419 34° Northeast 497 572 41,000  Level Washington Center
10:51PM 37.0994 -77.4433 35° Northeast 497 572 41,000  Level Washington Center
10:52PM 37.2156 -77.3444 34° Northeast 497 572 41,000  Level Washington Center
10:53PM 37.3317 -77.2453 34° Northeast 497 572 41,000  Level Washington Center
10:54PM 37.4606 -77.1250 37° Northeast 507 583 41,000  Level Washington Center
10:55PM 37.5700 -77.0408 31° Northeast 512 589 41,000  Level Washington Center
10:56PM 37.6819 -76.9353 37° Northeast 507 583 41,000  Level Washington Center
10:57PM 37.7997 -76.8350 34° Northeast 502 578 41,000  Level Washington Center
10:58PM 37.9133 -76.7314 36° Northeast 502 578 41,000  Level Washington Center
10:59PM 38.0311 -76.6303 34° Northeast 502 578 41,000  Level Washington Center
11:00PM 38.1444 -76.5289 35° Northeast 502 578 41,000  Level Washington Center
11:01PM 38.2600 -76.4247 35° Northeast 502 578 41,000  Level Washington Center
11:02PM 38.3733 -76.3253 35° Northeast 496 571 41,000  Level Washington Center
11:03PM 38.4906 -76.2203 35° Northeast 502 578 41,000  Level Washington Center
11:04PM 38.6244 -76.1019 35° Northeast 513 590 41,000  Level Washington Center
11:05PM 38.7397 -75.9936 36° Northeast 518 596 41,000  Level Washington Center
11:06PM 38.8567 -75.8903 35° Northeast 518 596 41,000 -60 Level Washington Center
11:07PM 38.9736 -75.7839 35° Northeast 518 596 40,900 -600 Descending Washington Center
11:08PM 39.0864 -75.6800 36° Northeast 512 589 39,900 -1,020 Descending Washington Center
11:09PM 39.1989 -75.5756 36° Northeast 507 583 38,900 -1,020 Descending Washington Center
11:10PM 39.3133 -75.4708 35° Northeast 502 578 37,900 -960 Descending Washington Center
11:11PM 39.4258 -75.3633 36° Northeast 502 578 37,000 -960 Descending Washington Center
11:12PM 39.5403 -75.2606 35° Northeast 502 578 36,100 -720 Descending Washington Center
11:13PM 39.7283 -75.0817 36° Northeast 495 570 35,000 -420 Descending New York Center
11:14PM 39.8383 -74.9775 36° Northeast 490 564 35,000  Level New York Center
11:15PM 39.9444 -74.8700 38° Northeast 485 558 35,000  Level New York Center
11:16PM 40.0472 -74.7269 47° Northeast 497 572 35,000  Level New York Center
11:17PM 40.1283 -74.6042 49° Northeast 497 572 35,000  Level New York Center
11:19PM 40.3547 -74.4553 27° Northeast 478 550 35,000  Level Boston Center
11:20PM 40.4844 -74.4211 11° North 473 544 35,000  Level Boston Center
11:21PM 40.6142 -74.3839 12° North 468 539 35,000 -1,200 Level Boston Center
11:22PM 40.7461 -74.3550 North 468 539 32,700 -2,460 Descending Boston Center
11:23PM 40.8781 -74.3206 11° North 474 545 30,100 -2,400 Descending Boston Center
11:24PM 41.0056 -74.2883 11° North 474 545 27,900 -2,100 Descending Boston Center
11:25PM 41.1333 -74.2508 12° North 468 539 26,000 -960 Descending Boston Center
11:26PM 41.2525 -74.2208 11° North 450 518 26,000  Level Boston Center
11:27PM 41.3697 -74.1856 13° North 438 504 26,000 -960 Level Boston Center
11:28PM 41.4914 -74.1500 12° North 438 504 24,100 -2,220 Descending Boston Center
11:29PM 41.6108 -74.1006 17° North 438 504 21,600 -2,220 Descending Boston Center
11:30PM 41.7264 -74.0339 23° Northeast 443 510 19,700 -2,340 Descending Boston Center
11:31PM 41.8478 -74.0092 North 418 481 17,000 -2,460 Descending Boston Center
11:32PM 41.9542 -73.9867 North 390 449 14,800 -2,340 Descending Boston Center
11:33PM 42.0169 -73.9742 North 365 420 13,200 -2,820 Descending Boston Center
11:33PM 42.0567 -73.9639 11° North 373 429 12,000 -1,620 Descending Boston Center
11:34PM 42.1403 -73.9436 10° North 349 402 11,000 -1,200 Descending Boston Center
11:35PM 42.2281 -73.9233 10° North 306 352 9,700 -1,320 Descending Boston Center
11:36PM 42.2950 -73.9081 10° North 276 318 8,400 -1,200 Descending Boston Center
11:37PM 42.3744 -73.8903 North 269 310 7,400 -1,200 Descending Boston Center
11:38PM 42.4414 -73.8750 10° North 264 304 6,100 -1,020 Descending Boston Center
11:39PM 42.5144 -73.8569 10° North 251 289 5,400 -600 Descending Boston Center
11:40PM 42.5647 -73.8467 North 213 245 5,000 -780 Descending Boston Center
11:41PM 42.6047 -73.8053 37° Northeast 173 199 3,900 -1,200 Descending Boston Center
11:42PM 42.6361 -73.8033 North 151 174 2,600 -1,200 Descending Boston Center
11:43PM 42.6797 -73.8042 359° North 121 139 1,500 -900 Descending Boston Center
11:44PM 42.7131 -73.8078 355° North 121 139 800 -720 Descending Boston Center